sensor_id;sensor_type;location;lat;lon;timestamp;pressure;altitude;pressure_sealevel;temperature;humidity
56270;BME280;42176;43.240;27.880;2023-08-06T00:01:52;99073.38;;;23.70;100.00
56270;BME280;42176;43.240;27.880;2023-08-06T00:03:52;99067.16;;;23.60;100.00
56270;BME280;42176;43.240;27.880;2023-08-06T00:05:53;99059.19;;;23.48;100.00
56270;BME280;42176;43.240;27.880;2023-08-06T00:07:53;99048.66;;;23.45;100.00
56270;BME280;42176;43.240;27.880;2023-08-06T00:09:54;99040.09;;;23.60;100.00
56270;BME280;42176;43.240;27.880;2023-08-06T00:11:54;99042.91;;;23.68;100.00
56270;BME280;42176;43.240;27.880;2023-08-06T00:13:54;99032.81;;;23.70;100.00
56270;BME280;42176;43.240;27.880;2023-08-06T00:15:55;99028.28;;;23.70;100.00
56270;BME280;42176;43.240;27.880;2023-08-06T00:17:55;99019.28;;;23.70;100.00
56270;BME280;42176;43.240;27.880;2023-08-06T00:19:56;99012.75;;;23.72;100.00
56270;BME280;42176;43.240;27.880;2023-08-06T00:21:56;99009.59;;;23.77;100.00
56270;BME280;42176;43.240;27.880;2023-08-06T00:23:56;99004.75;;;23.81;100.00
56270;BME280;42176;43.240;27.880;2023-08-06T00:25:57;99007.59;;;23.79;100.00
56270;BME280;42176;43.240;27.880;2023-08-06T00:27:58;99001.47;;;23.77;100.00
56270;BME280;42176;43.240;27.880;2023-08-06T00:29:59;98989.88;;;23.47;100.00
56270;BME280;42176;43.240;27.880;2023-08-06T00:31:59;99001.53;;;23.48;100.00
56270;BME280;42176;43.240;27.880;2023-08-06T00:34:00;98999.09;;;23.54;100.00
56270;BME280;42176;43.240;27.880;2023-08-06T00:36:00;98996.69;;;23.51;100.00
56270;BME280;42176;43.240;27.880;2023-08-06T00:38:00;98996.28;;;23.56;100.00
56270;BME280;42176;43.240;27.880;2023-08-06T00:40:01;98993.41;;;23.57;100.00
56270;BME280;42176;43.240;27.880;2023-08-06T00:42:01;98979.88;;;23.57;100.00
56270;BME280;42176;43.240;27.880;2023-08-06T00:44:02;98991.41;;;23.60;100.00
56270;BME280;42176;43.240;27.880;2023-08-06T00:46:03;98993.69;;;23.54;100.00
56270;BME280;42176;43.240;27.880;2023-08-06T00:48:05;99006.50;;;23.52;100.00
56270;BME280;42176;43.240;27.880;2023-08-06T00:50:07;98995.41;;;23.55;100.00
56270;BME280;42176;43.240;27.880;2023-08-06T00:52:08;98997.09;;;23.56;100.00
56270;BME280;42176;43.240;27.880;2023-08-06T00:54:09;98980.88;;;23.56;100.00
56270;BME280;42176;43.240;27.880;2023-08-06T00:56:10;98989.13;;;23.65;100.00
56270;BME280;42176;43.240;27.880;2023-08-06T00:58:12;98973.19;;;23.62;100.00
56270;BME280;42176;43.240;27.880;2023-08-06T01:00:13;98989.41;;;23.71;100.00
56270;BME280;42176;43.240;27.880;2023-08-06T01:02:13;98980.28;;;23.72;100.00
56270;BME280;42176;43.240;27.880;2023-08-06T01:04:14;98974.28;;;23.69;100.00
56270;BME280;42176;43.240;27.880;2023-08-06T01:06:19;98976.00;;;23.70;100.00
56270;BME280;42176;43.240;27.880;2023-08-06T01:09:01;98981.13;;;23.73;100.00
56270;BME280;42176;43.240;27.880;2023-08-06T01:13:46;98980.41;;;23.71;100.00
56270;BME280;42176;43.240;27.880;2023-08-06T01:15:49;98950.84;;;23.60;100.00
56270;BME280;42176;43.240;27.880;2023-08-06T01:17:53;98960.91;;;23.77;100.00
56270;BME280;42176;43.240;27.880;2023-08-06T01:19:53;98955.19;;;23.80;100.00
56270;BME280;42176;43.240;27.880;2023-08-06T01:21:54;98950.38;;;23.74;100.00
56270;BME280;42176;43.240;27.880;2023-08-06T01:23:54;98943.25;;;23.73;100.00
56270;BME280;42176;43.240;27.880;2023-08-06T01:28:23;98941.56;;;23.62;100.00
56270;BME280;42176;43.240;27.880;2023-08-06T01:30:30;98932.34;;;23.65;100.00
56270;BME280;42176;43.240;27.880;2023-08-06T01:32:38;98926.22;;;23.63;100.00
56270;BME280;42176;43.240;27.880;2023-08-06T01:34:41;98938.75;;;23.64;100.00
56270;BME280;42176;43.240;27.880;2023-08-06T01:36:45;98931.09;;;23.49;100.00
56270;BME280;42176;43.240;27.880;2023-08-06T01:38:46;98928.97;;;23.43;100.00
56270;BME280;42176;43.240;27.880;2023-08-06T01:40:46;98931.13;;;23.30;100.00
56270;BME280;42176;43.240;27.880;2023-08-06T01:42:47;98923.03;;;23.30;100.00
56270;BME280;42176;43.240;27.880;2023-08-06T01:44:48;98924.84;;;23.39;100.00
56270;BME280;42176;43.240;27.880;2023-08-06T01:46:48;98918.88;;;23.45;100.00
56270;BME280;42176;43.240;27.880;2023-08-06T01:48:48;98914.16;;;23.47;100.00
56270;BME280;42176;43.240;27.880;2023-08-06T01:50:49;98916.63;;;23.31;100.00
56270;BME280;42176;43.240;27.880;2023-08-06T01:52:49;98921.44;;;23.17;100.00
56270;BME280;42176;43.240;27.880;2023-08-06T01:54:50;98930.84;;;23.13;100.00
56270;BME280;42176;43.240;27.880;2023-08-06T01:56:50;98925.44;;;23.03;100.00
56270;BME280;42176;43.240;27.880;2023-08-06T01:58:50;98922.34;;;22.88;100.00
56270;BME280;42176;43.240;27.880;2023-08-06T02:00:51;98929.72;;;22.86;100.00
56270;BME280;42176;43.240;27.880;2023-08-06T02:02:51;98947.22;;;22.92;100.00
56270;BME280;42176;43.240;27.880;2023-08-06T02:04:52;98940.22;;;22.99;100.00
56270;BME280;42176;43.240;27.880;2023-08-06T02:06:52;98941.09;;;23.09;100.00
56270;BME280;42176;43.240;27.880;2023-08-06T02:08:52;98932.53;;;23.14;100.00
56270;BME280;42176;43.240;27.880;2023-08-06T02:10:53;98918.03;;;23.15;100.00
56270;BME280;42176;43.240;27.880;2023-08-06T02:12:54;98923.16;;;23.18;100.00
56270;BME280;42176;43.240;27.880;2023-08-06T02:14:54;98914.06;;;23.00;100.00
56270;BME280;42176;43.240;27.880;2023-08-06T02:16:55;98908.94;;;23.06;100.00
56270;BME280;42176;43.240;27.880;2023-08-06T02:18:55;98905.53;;;23.14;100.00
56270;BME280;42176;43.240;27.880;2023-08-06T02:20:59;98903.25;;;23.19;100.00
56270;BME280;42176;43.240;27.880;2023-08-06T02:22:59;98895.84;;;23.21;100.00
56270;BME280;42176;43.240;27.880;2023-08-06T02:25:00;98891.88;;;23.25;100.00
56270;BME280;42176;43.240;27.880;2023-08-06T02:27:00;98876.19;;;23.29;100.00
56270;BME280;42176;43.240;27.880;2023-08-06T02:29:01;98881.47;;;23.31;100.00
56270;BME280;42176;43.240;27.880;2023-08-06T02:31:01;98866.53;;;23.26;100.00
56270;BME280;42176;43.240;27.880;2023-08-06T02:33:02;98870.81;;;23.19;100.00
56270;BME280;42176;43.240;27.880;2023-08-06T02:35:02;98856.00;;;23.23;100.00
56270;BME280;42176;43.240;27.880;2023-08-06T02:37:03;98860.13;;;23.27;100.00
56270;BME280;42176;43.240;27.880;2023-08-06T02:39:03;98856.00;;;23.23;100.00
56270;BME280;42176;43.240;27.880;2023-08-06T02:41:04;98877.66;;;23.04;100.00
56270;BME280;42176;43.240;27.880;2023-08-06T02:43:05;98883.91;;;22.94;100.00
56270;BME280;42176;43.240;27.880;2023-08-06T02:45:05;98889.19;;;22.86;100.00
56270;BME280;42176;43.240;27.880;2023-08-06T02:47:06;98886.50;;;22.96;100.00
56270;BME280;42176;43.240;27.880;2023-08-06T02:49:07;98885.06;;;23.02;100.00
56270;BME280;42176;43.240;27.880;2023-08-06T02:51:07;98893.31;;;22.90;100.00
56270;BME280;42176;43.240;27.880;2023-08-06T02:53:08;98899.41;;;22.92;100.00
56270;BME280;42176;43.240;27.880;2023-08-06T02:55:08;98899.28;;;22.94;100.00
56270;BME280;42176;43.240;27.880;2023-08-06T02:57:09;98916.78;;;23.00;100.00
56270;BME280;42176;43.240;27.880;2023-08-06T02:59:09;98913.19;;;23.09;100.00
56270;BME280;42176;43.240;27.880;2023-08-06T03:01:10;98910.94;;;23.14;100.00
56270;BME280;42176;43.240;27.880;2023-08-06T03:03:10;98906.78;;;23.20;100.00
56270;BME280;42176;43.240;27.880;2023-08-06T03:05:10;98917.19;;;23.24;100.00
56270;BME280;42176;43.240;27.880;2023-08-06T03:07:11;98913.19;;;23.29;100.00
56270;BME280;42176;43.240;27.880;2023-08-06T03:09:12;98914.47;;;23.34;100.00
56270;BME280;42176;43.240;27.880;2023-08-06T03:11:12;98921.13;;;23.40;100.00
56270;BME280;42176;43.240;27.880;2023-08-06T03:13:13;98917.16;;;23.44;100.00
56270;BME280;42176;43.240;27.880;2023-08-06T03:15:13;98908.88;;;23.46;100.00
56270;BME280;42176;43.240;27.880;2023-08-06T03:17:14;98907.75;;;23.48;100.00
56270;BME280;42176;43.240;27.880;2023-08-06T03:19:15;98912.84;;;23.51;100.00
56270;BME280;42176;43.240;27.880;2023-08-06T03:21:15;98903.44;;;23.55;100.00
56270;BME280;42176;43.240;27.880;2023-08-06T03:23:16;98901.16;;;23.61;100.00
56270;BME280;42176;43.240;27.880;2023-08-06T03:25:16;98896.16;;;23.66;100.00
56270;BME280;42176;43.240;27.880;2023-08-06T03:27:18;98891.16;;;23.71;100.00
56270;BME280;42176;43.240;27.880;2023-08-06T03:29:18;98888.84;;;23.76;100.00
56270;BME280;42176;43.240;27.880;2023-08-06T03:31:19;98893.69;;;23.82;100.00
56270;BME280;42176;43.240;27.880;2023-08-06T03:33:19;98884.25;;;23.86;100.00
56270;BME280;42176;43.240;27.880;2023-08-06T03:35:19;98880.25;;;23.91;100.00
56270;BME280;42176;43.240;27.880;2023-08-06T03:37:20;98881.66;;;23.95;100.00
56270;BME280;42176;43.240;27.880;2023-08-06T03:39:21;98879.69;;;23.97;100.00
56270;BME280;42176;43.240;27.880;2023-08-06T03:41:21;98873.94;;;24.00;100.00
56270;BME280;42176;43.240;27.880;2023-08-06T03:43:22;98879.06;;;24.03;100.00
56270;BME280;42176;43.240;27.880;2023-08-06T03:45:22;98872.81;;;24.02;100.00
56270;BME280;42176;43.240;27.880;2023-08-06T03:47:22;98886.13;;;24.14;100.00
56270;BME280;42176;43.240;27.880;2023-08-06T03:49:23;98887.38;;;24.20;100.00
56270;BME280;42176;43.240;27.880;2023-08-06T03:51:23;98884.53;;;24.21;100.00
56270;BME280;42176;43.240;27.880;2023-08-06T03:53:24;98871.28;;;24.18;100.00
56270;BME280;42176;43.240;27.880;2023-08-06T03:55:24;98866.41;;;24.22;100.00
56270;BME280;42176;43.240;27.880;2023-08-06T03:57:25;98869.53;;;24.27;100.00
56270;BME280;42176;43.240;27.880;2023-08-06T03:59:25;98860.69;;;24.25;100.00
56270;BME280;42176;43.240;27.880;2023-08-06T04:01:25;98861.84;;;24.22;100.00
56270;BME280;42176;43.240;27.880;2023-08-06T04:03:26;98864.47;;;24.14;100.00
56270;BME280;42176;43.240;27.880;2023-08-06T04:05:27;98862.81;;;24.03;100.00
56270;BME280;42176;43.240;27.880;2023-08-06T04:07:27;98863.63;;;24.13;100.00
56270;BME280;42176;43.240;27.880;2023-08-06T04:09:28;98871.53;;;24.25;100.00
56270;BME280;42176;43.240;27.880;2023-08-06T04:11:29;98868.34;;;24.11;100.00
56270;BME280;42176;43.240;27.880;2023-08-06T04:13:30;98866.59;;;24.38;100.00
56270;BME280;42176;43.240;27.880;2023-08-06T04:15:33;98859.63;;;24.54;100.00
56270;BME280;42176;43.240;27.880;2023-08-06T04:17:34;98852.81;;;24.86;100.00
56270;BME280;42176;43.240;27.880;2023-08-06T04:19:34;98847.53;;;25.02;100.00
56270;BME280;42176;43.240;27.880;2023-08-06T04:21:35;98833.34;;;25.69;100.00
56270;BME280;42176;43.240;27.880;2023-08-06T04:23:35;98826.25;;;26.28;100.00
56270;BME280;42176;43.240;27.880;2023-08-06T04:25:35;98813.19;;;26.73;100.00
56270;BME280;42176;43.240;27.880;2023-08-06T04:27:36;98812.09;;;27.32;100.00
56270;BME280;42176;43.240;27.880;2023-08-06T04:29:42;98801.19;;;27.88;100.00
56270;BME280;42176;43.240;27.880;2023-08-06T04:31:42;98806.94;;;28.25;100.00
56270;BME280;42176;43.240;27.880;2023-08-06T04:33:42;98811.31;;;28.34;100.00
56270;BME280;42176;43.240;27.880;2023-08-06T04:35:43;98800.03;;;28.84;100.00
56270;BME280;42176;43.240;27.880;2023-08-06T04:37:44;98803.03;;;29.42;100.00
56270;BME280;42176;43.240;27.880;2023-08-06T04:39:44;98803.09;;;29.79;100.00
56270;BME280;42176;43.240;27.880;2023-08-06T04:41:44;98803.78;;;30.40;100.00
56270;BME280;42176;43.240;27.880;2023-08-06T04:43:45;98796.16;;;30.78;100.00
56270;BME280;42176;43.240;27.880;2023-08-06T04:45:53;98793.94;;;30.89;97.85
56270;BME280;42176;43.240;27.880;2023-08-06T04:47:54;98790.88;;;31.05;95.36
56270;BME280;42176;43.240;27.880;2023-08-06T04:49:55;98776.25;;;31.13;93.35
56270;BME280;42176;43.240;27.880;2023-08-06T04:51:56;98778.66;;;30.51;96.97
56270;BME280;42176;43.240;27.880;2023-08-06T04:53:57;98780.34;;;30.08;100.00
56270;BME280;42176;43.240;27.880;2023-08-06T04:55:57;98766.16;;;29.83;100.00
56270;BME280;42176;43.240;27.880;2023-08-06T04:57:58;98760.00;;;29.59;100.00
56270;BME280;42176;43.240;27.880;2023-08-06T04:59:58;98762.47;;;29.24;100.00
56270;BME280;42176;43.240;27.880;2023-08-06T05:01:58;98769.81;;;29.39;100.00
56270;BME280;42176;43.240;27.880;2023-08-06T05:03:59;98766.22;;;28.93;100.00
56270;BME280;42176;43.240;27.880;2023-08-06T05:05:59;98753.44;;;29.39;100.00
56270;BME280;42176;43.240;27.880;2023-08-06T05:07:59;98758.31;;;29.28;100.00
56270;BME280;42176;43.240;27.880;2023-08-06T05:10:00;98759.53;;;29.26;100.00
56270;BME280;42176;43.240;27.880;2023-08-06T05:12:01;98747.03;;;29.46;100.00
56270;BME280;42176;43.240;27.880;2023-08-06T05:14:02;98756.84;;;29.41;100.00
56270;BME280;42176;43.240;27.880;2023-08-06T05:16:02;98759.81;;;29.16;100.00
56270;BME280;42176;43.240;27.880;2023-08-06T05:18:03;98761.53;;;29.02;100.00
56270;BME280;42176;43.240;27.880;2023-08-06T05:20:04;98759.97;;;28.46;100.00
56270;BME280;42176;43.240;27.880;2023-08-06T05:22:04;98755.34;;;27.69;100.00
56270;BME280;42176;43.240;27.880;2023-08-06T05:24:05;98755.28;;;27.54;100.00
56270;BME280;42176;43.240;27.880;2023-08-06T05:26:05;98763.47;;;27.45;100.00
56270;BME280;42176;43.240;27.880;2023-08-06T05:28:06;98751.34;;;27.08;100.00
56270;BME280;42176;43.240;27.880;2023-08-06T05:30:06;98751.03;;;26.78;100.00
56270;BME280;42176;43.240;27.880;2023-08-06T05:32:07;98757.84;;;26.82;100.00
56270;BME280;42176;43.240;27.880;2023-08-06T05:34:07;98764.78;;;26.60;100.00
56270;BME280;42176;43.240;27.880;2023-08-06T05:36:08;98765.63;;;26.77;100.00
56270;BME280;42176;43.240;27.880;2023-08-06T05:38:08;98761.16;;;27.17;100.00
56270;BME280;42176;43.240;27.880;2023-08-06T05:40:09;98751.19;;;27.41;100.00
56270;BME280;42176;43.240;27.880;2023-08-06T05:42:09;98756.28;;;26.96;100.00
56270;BME280;42176;43.240;27.880;2023-08-06T05:44:10;98752.69;;;26.96;100.00
56270;BME280;42176;43.240;27.880;2023-08-06T05:46:10;98751.34;;;27.08;100.00
56270;BME280;42176;43.240;27.880;2023-08-06T05:48:10;98744.88;;;27.01;100.00
56270;BME280;42176;43.240;27.880;2023-08-06T05:50:11;98755.59;;;26.94;100.00
56270;BME280;42176;43.240;27.880;2023-08-06T05:52:11;98749.31;;;26.69;100.00
56270;BME280;42176;43.240;27.880;2023-08-06T05:54:12;98752.66;;;27.12;100.00
56270;BME280;42176;43.240;27.880;2023-08-06T05:56:12;98752.25;;;27.32;100.00
56270;BME280;42176;43.240;27.880;2023-08-06T05:58:13;98748.63;;;27.56;100.00
56270;BME280;42176;43.240;27.880;2023-08-06T06:00:13;98741.16;;;27.50;100.00
56270;BME280;42176;43.240;27.880;2023-08-06T06:02:14;98733.69;;;27.44;100.00
56270;BME280;42176;43.240;27.880;2023-08-06T06:04:14;98734.31;;;27.62;100.00
56270;BME280;42176;43.240;27.880;2023-08-06T06:06:14;98741.78;;;27.92;100.00
56270;BME280;42176;43.240;27.880;2023-08-06T06:08:16;98732.91;;;27.98;100.00
56270;BME280;42176;43.240;27.880;2023-08-06T06:10:16;98740.53;;;29.02;100.00
56270;BME280;42176;43.240;27.880;2023-08-06T06:12:17;98728.94;;;29.30;99.21
56270;BME280;42176;43.240;27.880;2023-08-06T06:14:18;98676.09;;;30.05;90.11
56270;BME280;42176;43.240;27.880;2023-08-06T06:16:19;98737.41;;;30.24;90.98
56270;BME280;42176;43.240;27.880;2023-08-06T06:18:19;98735.09;;;30.71;87.87
56270;BME280;42176;43.240;27.880;2023-08-06T06:20:19;98740.63;;;31.41;84.99
56270;BME280;42176;43.240;27.880;2023-08-06T06:22:21;98747.78;;;31.42;83.85
56270;BME280;42176;43.240;27.880;2023-08-06T06:24:22;98736.28;;;31.19;84.09
56270;BME280;42176;43.240;27.880;2023-08-06T06:26:22;98724.75;;;31.30;81.91
56270;BME280;42176;43.240;27.880;2023-08-06T06:28:22;98738.97;;;30.33;87.73
56270;BME280;42176;43.240;27.880;2023-08-06T06:30:23;98736.03;;;31.62;80.83
56270;BME280;42176;43.240;27.880;2023-08-06T06:32:23;98719.34;;;32.06;76.83
56270;BME280;42176;43.240;27.880;2023-08-06T06:34:24;98737.31;;;33.68;67.89
56270;BME280;42176;43.240;27.880;2023-08-06T06:36:24;98740.66;;;34.15;63.47
56270;BME280;42176;43.240;27.880;2023-08-06T06:38:25;98741.41;;;35.05;58.23
56270;BME280;42176;43.240;27.880;2023-08-06T06:40:25;98748.25;;;34.78;55.41
56270;BME280;42176;43.240;27.880;2023-08-06T06:42:26;98744.88;;;34.50;56.39
56270;BME280;42176;43.240;27.880;2023-08-06T06:44:27;98740.38;;;34.81;55.99
56270;BME280;42176;43.240;27.880;2023-08-06T06:46:27;98739.63;;;35.18;53.38
56270;BME280;42176;43.240;27.880;2023-08-06T06:48:28;98736.25;;;35.16;53.55
56270;BME280;42176;43.240;27.880;2023-08-06T06:50:29;98734.09;;;35.55;52.72
56270;BME280;42176;43.240;27.880;2023-08-06T06:52:29;98738.88;;;34.60;56.06
56270;BME280;42176;43.240;27.880;2023-08-06T06:54:30;98741.53;;;32.78;64.81
56270;BME280;42176;43.240;27.880;2023-08-06T06:56:30;98744.94;;;32.67;68.26
56270;BME280;42176;43.240;27.880;2023-08-06T06:58:32;98752.31;;;33.06;66.30
56270;BME280;42176;43.240;27.880;2023-08-06T07:00:32;98739.19;;;32.14;69.71
56270;BME280;42176;43.240;27.880;2023-08-06T07:02:35;98729.06;;;33.68;63.62
56270;BME280;42176;43.240;27.880;2023-08-06T07:04:35;98712.78;;;33.73;59.49
56270;BME280;42176;43.240;27.880;2023-08-06T07:06:36;98734.88;;;33.33;62.06
56270;BME280;42176;43.240;27.880;2023-08-06T07:08:36;98731.28;;;34.55;56.06
56270;BME280;42176;43.240;27.880;2023-08-06T07:10:37;98740.81;;;35.78;51.93
56270;BME280;42176;43.240;27.880;2023-08-06T07:12:38;98735.25;;;36.27;48.31
56270;BME280;42176;43.240;27.880;2023-08-06T07:14:39;98736.41;;;37.09;45.22
56270;BME280;42176;43.240;27.880;2023-08-06T07:16:39;98742.25;;;37.37;44.15
56270;BME280;42176;43.240;27.880;2023-08-06T07:18:39;98744.91;;;37.43;44.30
56270;BME280;42176;43.240;27.880;2023-08-06T07:20:40;98734.00;;;37.25;44.58
56270;BME280;42176;43.240;27.880;2023-08-06T07:22:40;98733.88;;;36.48;46.53
56270;BME280;42176;43.240;27.880;2023-08-06T07:24:41;98737.03;;;36.87;46.35
56270;BME280;42176;43.240;27.880;2023-08-06T07:26:41;98737.25;;;37.22;43.83
56270;BME280;42176;43.240;27.880;2023-08-06T07:28:41;98736.56;;;36.24;46.87
56270;BME280;42176;43.240;27.880;2023-08-06T07:30:43;98727.44;;;37.02;44.50
56270;BME280;42176;43.240;27.880;2023-08-06T07:32:44;98728.63;;;36.16;47.05
56270;BME280;42176;43.240;27.880;2023-08-06T07:34:44;98723.63;;;36.37;46.39
56270;BME280;42176;43.240;27.880;2023-08-06T07:36:45;98718.72;;;35.29;49.23
56270;BME280;42176;43.240;27.880;2023-08-06T07:38:46;98735.09;;;35.42;50.86
56270;BME280;42176;43.240;27.880;2023-08-06T07:40:48;98739.16;;;35.02;51.66
56270;BME280;42176;43.240;27.880;2023-08-06T07:42:49;98723.53;;;34.13;54.93
56270;BME280;42176;43.240;27.880;2023-08-06T07:44:53;98740.66;;;34.15;54.75
56270;BME280;42176;43.240;27.880;2023-08-06T07:46:54;98745.06;;;34.23;55.50
56270;BME280;42176;43.240;27.880;2023-08-06T07:48:55;98755.16;;;33.52;57.13
56270;BME280;42176;43.240;27.880;2023-08-06T07:50:55;98761.38;;;32.60;62.03
56270;BME280;42176;43.240;27.880;2023-08-06T07:52:56;98748.31;;;32.82;62.46
56270;BME280;42176;43.240;27.880;2023-08-06T07:54:56;98746.16;;;33.77;60.03
56270;BME280;42176;43.240;27.880;2023-08-06T07:56:57;98735.75;;;33.40;59.59
56270;BME280;42176;43.240;27.880;2023-08-06T07:58:57;98736.09;;;34.85;54.62
56270;BME280;42176;43.240;27.880;2023-08-06T08:00:58;98732.16;;;33.92;57.61
56270;BME280;42176;43.240;27.880;2023-08-06T08:02:58;98738.94;;;34.53;53.71
56270;BME280;42176;43.240;27.880;2023-08-06T08:04:58;98742.06;;;33.47;60.45
56270;BME280;42176;43.240;27.880;2023-08-06T08:06:59;98747.53;;;34.31;55.57
56270;BME280;42176;43.240;27.880;2023-08-06T08:08:59;98747.66;;;32.67;62.94
56270;BME280;42176;43.240;27.880;2023-08-06T08:11:00;98739.59;;;34.49;54.16
56270;BME280;42176;43.240;27.880;2023-08-06T08:13:02;98744.09;;;36.17;50.54
56270;BME280;42176;43.240;27.880;2023-08-06T08:15:02;98756.81;;;37.32;46.24
56270;BME280;42176;43.240;27.880;2023-08-06T08:17:04;98756.88;;;37.61;44.30
56270;BME280;42176;43.240;27.880;2023-08-06T08:19:05;98760.38;;;37.68;43.95
56270;BME280;42176;43.240;27.880;2023-08-06T08:21:06;98757.91;;;38.42;41.71
56270;BME280;42176;43.240;27.880;2023-08-06T08:23:06;98761.53;;;37.72;41.91
56270;BME280;42176;43.240;27.880;2023-08-06T08:25:07;98756.50;;;38.27;41.66
56270;BME280;42176;43.240;27.880;2023-08-06T08:27:07;98747.53;;;37.91;42.63
56270;BME280;42176;43.240;27.880;2023-08-06T08:29:08;98744.44;;;37.46;43.91
56270;BME280;42176;43.240;27.880;2023-08-06T08:31:09;98746.97;;;37.77;43.17
56270;BME280;42176;43.240;27.880;2023-08-06T08:33:10;98752.44;;;37.60;43.55
56270;BME280;42176;43.240;27.880;2023-08-06T08:35:10;98740.13;;;37.80;42.56
56270;BME280;42176;43.240;27.880;2023-08-06T08:37:13;98704.41;;;37.78;43.11
56270;BME280;42176;43.240;27.880;2023-08-06T08:39:14;98730.91;;;38.20;42.59
56270;BME280;42176;43.240;27.880;2023-08-06T08:41:15;98734.72;;;37.08;44.21
56270;BME280;42176;43.240;27.880;2023-08-06T08:43:16;98721.94;;;36.36;46.08
56270;BME280;42176;43.240;27.880;2023-08-06T08:45:20;98717.66;;;36.40;46.60
56270;BME280;42176;43.240;27.880;2023-08-06T08:47:20;98708.63;;;36.33;46.60
56270;BME280;42176;43.240;27.880;2023-08-06T08:49:21;98712.28;;;36.03;48.36
56270;BME280;42176;43.240;27.880;2023-08-06T08:51:23;98693.13;;;35.47;49.14
56270;BME280;42176;43.240;27.880;2023-08-06T08:53:24;98696.44;;;36.52;46.81
56270;BME280;42176;43.240;27.880;2023-08-06T08:55:26;98713.63;;;37.02;45.13
56270;BME280;42176;43.240;27.880;2023-08-06T08:57:27;98716.47;;;37.07;45.05
56270;BME280;42176;43.240;27.880;2023-08-06T08:59:27;98719.97;;;37.02;45.08
56270;BME280;42176;43.240;27.880;2023-08-06T09:01:28;98716.47;;;36.60;46.25
56270;BME280;42176;43.240;27.880;2023-08-06T09:03:29;98714.59;;;36.72;46.01
56270;BME280;42176;43.240;27.880;2023-08-06T09:05:30;98709.75;;;36.79;45.22
56270;BME280;42176;43.240;27.880;2023-08-06T09:07:45;98710.75;;;36.73;46.84
56270;BME280;42176;43.240;27.880;2023-08-06T09:09:49;98720.16;;;36.41;46.07
56270;BME280;42176;43.240;27.880;2023-08-06T09:11:50;98713.63;;;36.24;47.20
56270;BME280;42176;43.240;27.880;2023-08-06T09:13:52;98718.25;;;36.00;48.15
56270;BME280;42176;43.240;27.880;2023-08-06T09:15:53;98692.50;;;35.45;48.38
56270;BME280;42176;43.240;27.880;2023-08-06T09:17:54;98712.66;;;35.39;50.56
56270;BME280;42176;43.240;27.880;2023-08-06T09:19:55;98711.91;;;34.94;52.25
56270;BME280;42176;43.240;27.880;2023-08-06T09:21:56;98700.41;;;34.53;53.91
56270;BME280;42176;43.240;27.880;2023-08-06T09:23:58;98694.13;;;33.43;56.99
56270;BME280;42176;43.240;27.880;2023-08-06T09:25:59;98684.72;;;33.12;62.56
56270;BME280;42176;43.240;27.880;2023-08-06T09:28:00;98683.06;;;32.98;63.89
56270;BME280;42176;43.240;27.880;2023-08-06T09:30:00;98675.94;;;32.49;66.07
56270;BME280;42176;43.240;27.880;2023-08-06T09:32:01;98668.34;;;32.25;68.87
56270;BME280;42176;43.240;27.880;2023-08-06T09:34:02;98667.53;;;32.38;68.83
56270;BME280;42176;43.240;27.880;2023-08-06T09:36:09;98666.19;;;31.80;70.78
56270;BME280;42176;43.240;27.880;2023-08-06T09:38:10;98666.34;;;31.65;73.24
56270;BME280;42176;43.240;27.880;2023-08-06T09:40:32;98679.69;;;31.26;76.15
56270;BME280;42176;43.240;27.880;2023-08-06T09:42:36;98673.28;;;31.61;74.43
56270;BME280;42176;43.240;27.880;2023-08-06T09:44:40;98659.88;;;31.79;74.47
56270;BME280;42176;43.240;27.880;2023-08-06T09:46:41;98665.94;;;31.68;73.79
56270;BME280;42176;43.240;27.880;2023-08-06T09:48:45;98670.44;;;31.89;71.06
56270;BME280;42176;43.240;27.880;2023-08-06T09:50:46;98658.19;;;31.23;75.64
56270;BME280;42176;43.240;27.880;2023-08-06T09:52:48;98661.81;;;30.60;79.32
56270;BME280;42176;43.240;27.880;2023-08-06T09:54:49;98655.38;;;31.09;78.65
56270;BME280;42176;43.240;27.880;2023-08-06T09:56:51;98651.75;;;31.51;76.49
56270;BME280;42176;43.240;27.880;2023-08-06T09:58:52;98659.06;;;30.88;81.08
56270;BME280;42176;43.240;27.880;2023-08-06T10:00:53;98647.91;;;30.55;80.24
56270;BME280;42176;43.240;27.880;2023-08-06T10:02:54;98653.16;;;30.28;83.51
56270;BME280;42176;43.240;27.880;2023-08-06T10:04:57;98647.19;;;30.17;85.31
56270;BME280;42176;43.240;27.880;2023-08-06T10:06:59;98643.63;;;30.74;83.96
56270;BME280;42176;43.240;27.880;2023-08-06T10:08:59;98638.25;;;30.59;83.38
56270;BME280;42176;43.240;27.880;2023-08-06T10:11:02;98642.31;;;30.41;84.87
56270;BME280;42176;43.240;27.880;2023-08-06T10:13:05;98649.53;;;29.99;87.85
56270;BME280;42176;43.240;27.880;2023-08-06T10:15:11;98647.63;;;30.78;86.25
56270;BME280;42176;43.240;27.880;2023-08-06T10:17:13;98639.59;;;30.41;84.18
56270;BME280;42176;43.240;27.880;2023-08-06T10:19:15;98636.75;;;30.28;87.75
56270;BME280;42176;43.240;27.880;2023-08-06T10:21:17;98625.53;;;30.44;87.21
56270;BME280;42176;43.240;27.880;2023-08-06T10:23:17;98610.41;;;30.48;87.29
56270;BME280;42176;43.240;27.880;2023-08-06T10:25:24;98625.00;;;30.27;85.11
56270;BME280;42176;43.240;27.880;2023-08-06T10:27:34;98626.81;;;30.48;87.16
56270;BME280;42176;43.240;27.880;2023-08-06T10:29:36;98612.34;;;30.90;84.16
56270;BME280;42176;43.240;27.880;2023-08-06T10:31:58;98601.28;;;30.63;86.00
56270;BME280;42176;43.240;27.880;2023-08-06T10:34:00;98612.75;;;30.23;85.82
56270;BME280;42176;43.240;27.880;2023-08-06T10:36:01;98614.34;;;30.67;86.64